Time;durP1;ratioP1;P1;durP2;ratioP2;P2;SDS_P1;SDS_P2;PMS_P1;PMS_P2;Temp;Humidity;BMP_temperature;BMP_pressure;BME280_temperature;BME280_humidity;BME280_pressure;Samples;Min_cycle;Max_cycle;Signal;HPM_P1;HPM_P2
2022/09/14 00:01:35;;;;;;;3.33;2.93;;;18.40;99.90;;;;;;5009510;28;20550;-59
2022/09/14 00:04:05;;;;;;;6.23;3.37;;;18.40;99.90;;;;;;5010654;28;20195;-59
2022/09/14 00:06:32;;;;;;;6.23;3.60;;;18.40;99.90;;;;;;5016066;28;20478;-58
2022/09/14 00:09:01;;;;;;;4.50;3.30;;;18.40;99.90;;;;;;5007790;28;21048;-59
2022/09/14 00:11:30;;;;;;;6.43;3.43;;;18.40;99.90;;;;;;5008174;28;20984;-60
2022/09/14 00:13:57;;;;;;;4.93;3.67;;;18.40;99.90;;;;;;5009958;28;21013;-58
2022/09/14 00:16:26;;;;;;;5.27;3.90;;;18.40;99.90;;;;;;5014411;28;20508;-58
2022/09/14 00:18:53;;;;;;;5.10;3.60;;;18.40;99.90;;;;;;5008777;28;20429;-59
2022/09/14 00:21:20;;;;;;;6.03;3.80;;;18.40;99.90;;;;;;5008044;28;20458;-59
2022/09/14 00:23:46;;;;;;;4.40;3.70;;;18.40;99.90;;;;;;5027985;28;20410;-58
2022/09/14 00:26:14;;;;;;;4.00;3.60;;;18.30;99.90;;;;;;5013165;28;20427;-58
2022/09/14 00:28:43;;;;;;;3.97;3.40;;;18.30;99.90;;;;;;5018476;28;20187;-59
2022/09/14 00:31:09;;;;;;;5.67;3.40;;;18.30;99.90;;;;;;5016687;28;20437;-59
2022/09/14 00:33:36;;;;;;;8.57;3.40;;;18.30;99.90;;;;;;5009417;28;20432;-59
2022/09/14 00:36:08;;;;;;;4.10;3.30;;;18.30;99.90;;;;;;5008364;28;20576;-58
2022/09/14 00:38:34;;;;;;;6.93;4.17;;;18.30;99.90;;;;;;5010003;28;20431;-59
2022/09/14 00:41:01;;;;;;;6.03;3.93;;;18.30;99.90;;;;;;5016083;28;20509;-58
2022/09/14 00:43:27;;;;;;;6.07;4.10;;;18.30;99.90;;;;;;5014201;28;20677;-59
2022/09/14 00:45:53;;;;;;;6.63;3.53;;;18.30;99.90;;;;;;5009252;28;20514;-59
2022/09/14 00:48:23;;;;;;;4.50;3.27;;;18.30;99.90;;;;;;5009112;28;20248;-59
2022/09/14 00:50:49;;;;;;;7.60;3.53;;;18.30;99.90;;;;;;5005289;28;20550;-58
2022/09/14 00:53:15;;;;;;;4.87;3.70;;;18.30;99.90;;;;;;5003013;28;20514;-58
2022/09/14 00:55:40;;;;;;;7.30;3.63;;;18.30;99.90;;;;;;5012376;28;20204;-58
2022/09/14 00:58:06;;;;;;;5.80;3.40;;;18.30;99.90;;;;;;5007249;28;20524;-58
2022/09/14 01:00:32;;;;;;;6.80;3.70;;;18.20;99.90;;;;;;5009594;28;20262;-59
2022/09/14 01:02:57;;;;;;;5.47;3.80;;;18.20;99.90;;;;;;5006211;28;20685;-59
2022/09/14 01:05:44;;;;;;;4.87;3.60;;;18.20;99.90;;;;;;5008371;28;20182;-58
2022/09/14 01:08:36;;;;;;;4.43;3.30;;;18.20;99.90;;;;;;5006718;28;20524;-59
2022/09/14 01:11:17;;;;;;;4.90;3.77;;;18.20;99.90;;;;;;5000774;28;20975;-58
2022/09/14 01:13:54;;;;;;;7.00;3.80;;;18.20;99.90;;;;;;5007873;28;20446;-59
2022/09/14 01:16:34;;;;;;;7.13;4.60;;;18.10;99.90;;;;;;5011163;28;20463;-59
2022/09/14 01:19:05;;;;;;;10.60;4.27;;;18.10;99.90;;;;;;5003603;28;20506;-59
2022/09/14 01:21:34;;;;;;;6.70;4.47;;;18.10;99.90;;;;;;5008065;28;20857;-59
2022/09/14 01:24:21;;;;;;;9.80;4.43;;;18.10;99.90;;;;;;5007869;28;21089;-58
2022/09/14 01:27:12;;;;;;;12.90;4.80;;;18.10;99.90;;;;;;5011906;28;20461;-59
2022/09/14 01:29:53;;;;;;;6.77;4.30;;;18.10;99.90;;;;;;5006891;28;20451;-58
2022/09/14 01:32:29;;;;;;;6.17;4.07;;;18.00;99.90;;;;;;5006678;28;20509;-58
2022/09/14 01:35:23;;;;;;;6.90;3.83;;;18.00;99.90;;;;;;5009898;28;20443;-58
2022/09/14 01:38:02;;;;;;;7.50;4.80;;;18.00;99.90;;;;;;4978691;28;20542;-59
2022/09/14 01:40:44;;;;;;;5.10;3.80;;;18.00;99.90;;;;;;5007948;28;20427;-58
2022/09/14 01:43:25;;;;;;;22.23;4.50;;;18.00;99.90;;;;;;5017118;28;20473;-59
2022/09/14 01:45:53;;;;;;;5.30;4.20;;;18.00;99.90;;;;;;4999682;28;20517;-58
2022/09/14 01:48:45;;;;;;;4.73;3.80;;;18.00;99.90;;;;;;5003351;28;20431;-59
2022/09/14 01:51:25;;;;;;;5.87;3.80;;;18.00;99.90;;;;;;4987979;28;20533;-56
2022/09/14 01:54:00;;;;;;;7.87;4.10;;;18.00;99.90;;;;;;5007377;28;20875;-59
2022/09/14 01:56:40;;;;;;;6.83;3.63;;;18.00;99.90;;;;;;5008205;28;20516;-59
2022/09/14 01:59:24;;;;;;;3.97;3.67;;;18.00;99.90;;;;;;5007128;28;21023;-59
2022/09/14 02:02:07;;;;;;;8.63;4.03;;;18.00;99.90;;;;;;5012854;28;20497;-59
2022/09/14 02:04:51;;;;;;;5.90;4.00;;;17.90;99.90;;;;;;5010918;28;20443;-58
2022/09/14 02:07:18;;;;;;;5.63;4.13;;;17.90;99.90;;;;;;5005446;28;20431;-58
2022/09/14 02:09:44;;;;;;;7.07;4.27;;;17.90;99.90;;;;;;5007025;28;20541;-59
2022/09/14 02:12:10;;;;;;;8.63;3.73;;;17.90;99.90;;;;;;5006751;28;20550;-59
2022/09/14 02:14:36;;;;;;;5.53;3.70;;;17.90;99.90;;;;;;5006601;28;20534;-59
2022/09/14 02:17:02;;;;;;;8.57;3.80;;;18.00;99.90;;;;;;5005118;28;20223;-58
2022/09/14 02:19:33;;;;;;;4.40;3.87;;;18.00;99.90;;;;;;5005940;28;20207;-59
2022/09/14 02:21:58;;;;;;;3.80;3.27;;;18.00;99.90;;;;;;5009193;28;20197;-58
2022/09/14 02:24:25;;;;;;;4.70;3.30;;;18.00;99.90;;;;;;5005163;28;20434;-58
2022/09/14 02:26:53;;;;;;;4.20;3.60;;;18.00;99.90;;;;;;5006447;28;20655;-59
2022/09/14 02:29:19;;;;;;;5.73;3.97;;;18.00;99.90;;;;;;5016266;28;20488;-59
2022/09/14 02:32:19;;;;;;;4.73;4.00;;;18.10;99.90;;;;;;5007105;28;20455;-59
2022/09/14 02:34:59;;;;;;;5.70;3.30;;;18.10;99.90;;;;;;5006467;28;20185;-59
2022/09/14 02:38:15;;;;;;;10.97;3.70;;;18.10;99.90;;;;;;5002790;28;20507;-58
2022/09/14 02:40:44;;;;;;;6.33;4.10;;;18.00;99.90;;;;;;4956380;28;20469;-59
2022/09/14 02:43:21;;;;;;;7.00;3.80;;;18.00;99.90;;;;;;4943538;28;20841;-59
2022/09/14 02:46:01;;;;;;;6.73;4.50;;;18.00;99.90;;;;;;4996560;28;20453;-59
2022/09/14 02:48:38;;;;;;;10.10;4.07;;;18.00;99.90;;;;;;5009961;28;20760;-58
2022/09/14 02:51:27;;;;;;;8.73;4.97;;;18.00;99.90;;;;;;5010286;28;20829;-58
2022/09/14 02:54:00;;;;;;;6.53;4.17;;;18.00;99.90;;;;;;5006879;28;20442;-58
2022/09/14 02:56:27;;;;;;;6.43;3.87;;;18.00;99.90;;;;;;5015750;28;20462;-59
2022/09/14 02:58:53;;;;;;;6.10;3.70;;;18.10;99.90;;;;;;5006780;28;20439;-58
2022/09/14 03:01:21;;;;;;;7.40;3.97;;;18.10;99.90;;;;;;5006179;28;20826;-59
2022/09/14 03:03:46;;;;;;;7.87;3.87;;;18.10;99.90;;;;;;5004867;28;20184;-59
2022/09/14 03:06:12;;;;;;;7.37;3.83;;;18.10;99.90;;;;;;5013395;28;20531;-58
2022/09/14 03:08:38;;;;;;;8.80;3.73;;;18.10;99.90;;;;;;5015858;28;20305;-58
2022/09/14 03:11:05;;;;;;;6.77;3.97;;;18.00;99.90;;;;;;5004908;28;20259;-59
2022/09/14 03:13:31;;;;;;;6.20;4.70;;;18.00;99.90;;;;;;4998195;28;20951;-60
2022/09/14 03:15:56;;;;;;;4.57;3.90;;;18.10;99.90;;;;;;5011595;28;20462;-58
2022/09/14 03:18:22;;;;;;;5.60;4.23;;;18.00;99.90;;;;;;5008157;28;20172;-58
2022/09/14 03:20:48;;;;;;;6.00;4.07;;;18.10;99.90;;;;;;5011210;28;20640;-59
2022/09/14 03:23:14;;;;;;;5.80;3.80;;;18.10;99.90;;;;;;5003308;28;20196;-59
2022/09/14 03:25:43;;;;;;;8.33;4.10;;;18.10;99.90;;;;;;5006383;28;20542;-59
2022/09/14 03:28:10;;;;;;;5.30;3.93;;;18.10;99.90;;;;;;5005482;28;20443;-58
2022/09/14 03:30:36;;;;;;;5.93;4.23;;;18.20;99.90;;;;;;5007801;28;20465;-59
2022/09/14 03:33:03;;;;;;;4.10;3.80;;;18.20;99.90;;;;;;5016627;28;20942;-59
2022/09/14 03:35:30;;;;;;;7.30;3.90;;;18.20;99.90;;;;;;5004206;28;20184;-59
2022/09/14 03:37:56;;;;;;;9.90;3.80;;;18.20;99.90;;;;;;5002569;28;20976;-59
2022/09/14 03:40:22;;;;;;;7.13;5.17;;;18.20;99.90;;;;;;5004668;28;20506;-59
2022/09/14 03:42:49;;;;;;;4.50;3.63;;;18.10;99.90;;;;;;5000340;28;20633;-60
2022/09/14 03:45:16;;;;;;;6.10;4.40;;;18.10;99.90;;;;;;5005152;28;20443;-58
2022/09/14 03:47:42;;;;;;;5.57;4.97;;;18.10;99.90;;;;;;5006359;28;20443;-59
2022/09/14 03:50:10;;;;;;;5.73;4.60;;;18.10;99.90;;;;;;4998320;28;20433;-58
2022/09/14 03:52:37;;;;;;;7.33;4.30;;;18.10;99.90;;;;;;4999473;28;20701;-59
2022/09/14 03:55:05;;;;;;;10.00;6.50;;;18.10;99.90;;;;;;5001621;28;20439;-59
2022/09/14 03:57:31;;;;;;;8.13;5.57;;;18.10;99.90;;;;;;5004156;28;20549;-59
2022/09/14 03:59:57;;;;;;;7.60;5.50;;;18.10;99.90;;;;;;5006264;28;20439;-60
2022/09/14 04:02:23;;;;;;;8.57;4.83;;;18.10;99.90;;;;;;5021640;28;20446;-59
2022/09/14 04:04:49;;;;;;;16.93;7.47;;;18.10;99.90;;;;;;5002901;28;20185;-57
2022/09/14 04:07:15;;;;;;;11.97;6.27;;;18.20;99.90;;;;;;4996432;28;20790;-56
2022/09/14 04:09:42;;;;;;;7.73;5.60;;;18.20;99.90;;;;;;5003209;28;20316;-57
2022/09/14 04:12:08;;;;;;;13.80;5.50;;;18.20;99.90;;;;;;5003916;28;20581;-58
2022/09/14 04:14:33;;;;;;;5.10;4.60;;;18.20;99.90;;;;;;5003006;28;20545;-56
2022/09/14 04:16:59;;;;;;;9.73;4.90;;;18.20;99.90;;;;;;5004128;28;20467;-56
2022/09/14 04:19:25;;;;;;;12.10;5.83;;;18.20;99.90;;;;;;5003734;28;20227;-56
2022/09/14 04:21:50;;;;;;;9.27;5.40;;;18.10;99.90;;;;;;5001494;28;20192;-57
2022/09/14 04:24:16;;;;;;;5.47;4.80;;;18.10;99.90;;;;;;4999344;28;20177;-59
2022/09/14 04:26:44;;;;;;;5.40;4.90;;;18.10;99.90;;;;;;5001379;28;20617;-59
2022/09/14 04:29:11;;;;;;;7.40;4.87;;;18.10;99.90;;;;;;5005642;28;20184;-58
2022/09/14 04:31:37;;;;;;;5.90;5.10;;;18.10;99.90;;;;;;5005141;28;20601;-59
2022/09/14 04:34:03;;;;;;;13.37;7.27;;;18.10;99.90;;;;;;4996262;28;20466;-59
2022/09/14 04:36:29;;;;;;;6.70;5.43;;;18.10;99.90;;;;;;5000451;28;20211;-58
2022/09/14 04:38:58;;;;;;;8.30;5.47;;;18.10;99.90;;;;;;5009788;28;20431;-58
2022/09/14 04:41:24;;;;;;;7.50;5.73;;;18.10;99.90;;;;;;5010932;28;20459;-59
2022/09/14 04:43:51;;;;;;;9.33;5.20;;;18.10;99.90;;;;;;5029666;22;20524;-62
2022/09/14 04:46:19;;;;;;;12.00;6.20;;;18.10;99.90;;;;;;5004421;28;20501;-63
2022/09/14 04:48:45;;;;;;;8.97;5.87;;;18.00;99.90;;;;;;4996362;28;20445;-62
2022/09/14 04:51:15;;;;;;;7.53;6.07;;;18.00;99.90;;;;;;4994600;28;20818;-62
2022/09/14 04:53:42;;;;;;;9.27;6.50;;;18.00;99.90;;;;;;5017227;28;20538;-62
2022/09/14 04:56:09;;;;;;;11.37;5.50;;;18.00;99.90;;;;;;5031892;28;20848;-62
2022/09/14 04:58:38;;;;;;;17.27;7.30;;;18.00;99.90;;;;;;5021135;28;20510;-62
2022/09/14 05:01:09;;;;;;;15.50;8.00;;;18.00;99.90;;;;;;5012794;28;20435;-62
2022/09/14 05:03:39;;;;;;;11.47;7.73;;;18.00;99.90;;;;;;5017420;28;20451;-62
2022/09/14 05:06:11;;;;;;;9.07;7.20;;;18.00;99.90;;;;;;5018270;28;20461;-62
2022/09/14 05:08:37;;;;;;;9.73;6.60;;;18.00;99.90;;;;;;5013399;28;20744;-62
2022/09/14 05:11:05;;;;;;;15.50;6.33;;;18.00;99.90;;;;;;5021704;28;20442;-62
2022/09/14 05:13:31;;;;;;;8.93;5.80;;;18.00;99.90;;;;;;5024744;28;20278;-61
2022/09/14 05:16:15;;;;;;;13.40;10.03;;;17.90;99.90;;;;;;5024875;28;20470;-62
2022/09/14 05:18:41;;;;;;;8.30;7.03;;;17.90;99.90;;;;;;5030405;28;20465;-62
2022/09/14 05:21:09;;;;;;;9.90;6.90;;;17.90;99.90;;;;;;5017998;28;20431;-62
2022/09/14 05:23:35;;;;;;;9.30;6.20;;;17.90;99.90;;;;;;5018752;28;20933;-62
2022/09/14 05:26:02;;;;;;;14.77;6.63;;;17.90;99.90;;;;;;5015842;28;20442;-62
2022/09/14 05:28:27;;;;;;;10.43;6.40;;;17.80;99.90;;;;;;5012534;28;20179;-62
2022/09/14 05:30:53;;;;;;;8.43;6.83;;;17.80;99.90;;;;;;5019762;28;20435;-62
2022/09/14 05:33:20;;;;;;;8.83;6.50;;;17.80;99.90;;;;;;5030532;28;20717;-62
2022/09/14 05:35:47;;;;;;;9.73;6.90;;;17.80;99.90;;;;;;5013548;28;20474;-62
2022/09/14 05:38:13;;;;;;;11.43;6.70;;;17.80;99.90;;;;;;5030316;28;20398;-62
2022/09/14 05:40:38;;;;;;;20.37;7.67;;;17.80;99.90;;;;;;5031235;28;20405;-62
2022/09/14 05:43:04;;;;;;;18.57;6.70;;;17.80;99.90;;;;;;5026705;28;20237;-61
2022/09/14 05:45:30;;;;;;;10.47;6.77;;;17.80;99.90;;;;;;5011812;28;20251;-62
2022/09/14 05:48:00;;;;;;;13.27;7.50;;;17.80;99.90;;;;;;5011535;28;20172;-61
2022/09/14 05:50:26;;;;;;;8.67;6.80;;;17.80;99.90;;;;;;5010442;28;20227;-62
2022/09/14 05:52:51;;;;;;;10.60;6.03;;;17.80;99.90;;;;;;5027080;28;20860;-63
2022/09/14 05:55:17;;;;;;;14.57;6.33;;;17.80;99.90;;;;;;5028329;28;20188;-62
2022/09/14 05:57:47;;;;;;;9.20;5.93;;;17.80;99.90;;;;;;5021126;28;20212;-62
2022/09/14 06:00:13;;;;;;;8.20;6.23;;;17.80;99.90;;;;;;5012262;28;20180;-61
2022/09/14 06:02:39;;;;;;;10.70;7.00;;;17.80;99.90;;;;;;5010787;28;20958;-62
2022/09/14 06:05:04;;;;;;;7.77;5.23;;;17.80;99.90;;;;;;5011522;28;20412;-61
2022/09/14 06:07:30;;;;;;;6.77;5.30;;;17.80;99.90;;;;;;5021398;28;20662;-62
2022/09/14 06:09:56;;;;;;;5.67;5.07;;;17.90;99.90;;;;;;5012685;28;20185;-62
2022/09/14 06:12:22;;;;;;;12.67;5.67;;;17.90;99.90;;;;;;5025443;28;20199;-62
2022/09/14 06:14:47;;;;;;;7.53;5.13;;;17.90;99.90;;;;;;5025114;28;20319;-61
2022/09/14 06:17:13;;;;;;;10.97;6.23;;;17.90;99.90;;;;;;5026963;28;20208;-61
2022/09/14 06:19:38;;;;;;;10.83;5.17;;;18.00;99.90;;;;;;5021732;28;20262;-62
2022/09/14 06:22:04;;;;;;;8.47;5.87;;;18.00;99.90;;;;;;5027910;28;20188;-61
2022/09/14 06:24:29;;;;;;;7.47;5.90;;;18.00;99.90;;;;;;5030884;28;20176;-62
2022/09/14 06:26:55;;;;;;;11.83;6.50;;;18.00;99.90;;;;;;5013507;28;20177;-61
2022/09/14 06:29:21;;;;;;;8.67;6.17;;;18.10;99.90;;;;;;5011271;28;20191;-62
2022/09/14 06:31:46;;;;;;;8.67;6.50;;;18.10;99.90;;;;;;5023977;28;20184;-62
2022/09/14 06:34:12;;;;;;;10.73;6.80;;;18.20;99.90;;;;;;5028288;28;20199;-62
2022/09/14 06:36:37;;;;;;;13.43;6.60;;;18.20;99.90;;;;;;5029043;28;20261;-63
2022/09/14 06:39:03;;;;;;;6.67;5.80;;;18.30;99.90;;;;;;5030559;28;20584;-62
2022/09/14 06:41:31;;;;;;;12.43;6.33;;;18.30;99.90;;;;;;5026047;28;20243;-62
2022/09/14 06:43:58;;;;;;;8.93;5.87;;;18.40;99.90;;;;;;5012031;28;20311;-62
2022/09/14 06:46:29;;;;;;;14.60;6.13;;;18.40;99.90;;;;;;5010904;28;20412;-62
2022/09/14 06:49:01;;;;;;;12.00;5.93;;;18.40;99.90;;;;;;5011214;28;20466;-62
2022/09/14 06:51:33;;;;;;;13.80;6.40;;;18.50;99.90;;;;;;5016740;28;20445;-62
2022/09/14 06:54:00;;;;;;;8.53;5.70;;;18.50;99.90;;;;;;5030251;28;20425;-62
2022/09/14 06:56:27;;;;;;;13.07;5.87;;;18.50;99.90;;;;;;5030400;28;20455;-61
2022/09/14 06:58:53;;;;;;;7.37;5.83;;;18.60;99.90;;;;;;5024792;28;20439;-62
2022/09/14 07:01:19;;;;;;;8.60;5.90;;;18.60;99.90;;;;;;5012221;28;20454;-62
2022/09/14 07:03:46;;;;;;;10.70;5.93;;;18.60;99.90;;;;;;5028054;28;20195;-62
2022/09/14 07:06:15;;;;;;;8.37;6.77;;;18.60;99.90;;;;;;5022234;28;20438;-62
2022/09/14 07:08:41;;;;;;;10.67;6.47;;;18.60;99.90;;;;;;5023563;28;20439;-62
2022/09/14 07:11:09;;;;;;;12.73;7.83;;;18.60;99.90;;;;;;5010857;28;20420;-62
2022/09/14 07:13:35;;;;;;;14.00;7.63;;;18.60;99.90;;;;;;5010605;28;20423;-62
2022/09/14 07:16:04;;;;;;;10.20;6.70;;;18.60;99.90;;;;;;5009853;28;20463;-62
2022/09/14 07:18:31;;;;;;;16.43;7.30;;;18.60;99.90;;;;;;5027903;28;20183;-62
2022/09/14 07:21:04;;;;;;;9.37;7.03;;;18.60;99.90;;;;;;5027748;28;20493;-62
2022/09/14 07:23:30;;;;;;;7.37;6.27;;;18.70;99.90;;;;;;5029278;28;20948;-62
2022/09/14 07:26:06;;;;;;;9.40;5.80;;;18.70;99.90;;;;;;5024102;28;20466;-62
2022/09/14 07:28:32;;;;;;;8.63;5.47;;;18.80;99.90;;;;;;5028579;28;20704;-62
2022/09/14 07:30:58;;;;;;;7.13;5.10;;;18.80;99.90;;;;;;5027027;28;20422;-62
2022/09/14 07:33:24;;;;;;;6.90;5.40;;;18.90;99.90;;;;;;5027747;28;20418;-62
2022/09/14 07:35:51;;;;;;;9.87;5.33;;;19.00;99.90;;;;;;5022104;28;20314;-61
2022/09/14 07:38:16;;;;;;;10.03;6.23;;;19.10;99.90;;;;;;5029853;28;20700;-62
2022/09/14 07:40:43;;;;;;;9.63;6.07;;;19.20;99.90;;;;;;5029523;28;20485;-62
2022/09/14 07:43:09;;;;;;;12.60;6.30;;;19.30;99.90;;;;;;5022723;28;20243;-62
2022/09/14 07:45:35;;;;;;;10.33;5.80;;;19.40;99.90;;;;;;5016971;28;20827;-62
2022/09/14 07:48:01;;;;;;;7.17;5.77;;;19.40;99.90;;;;;;5010074;28;20165;-61
2022/09/14 07:50:27;;;;;;;8.10;5.30;;;19.50;99.90;;;;;;5024203;28;20929;-62
2022/09/14 07:52:52;;;;;;;10.90;6.20;;;19.60;99.90;;;;;;5020648;28;20208;-62
2022/09/14 07:55:18;;;;;;;12.73;5.70;;;19.70;99.90;;;;;;5019998;28;20176;-62
2022/09/14 07:57:45;;;;;;;8.93;5.40;;;19.70;99.90;;;;;;5009168;28;20208;-62
2022/09/14 08:00:13;;;;;;;7.67;5.40;;;19.80;99.90;;;;;;5009926;28;20177;-62
2022/09/14 08:02:39;;;;;;;6.13;4.87;;;19.90;99.90;;;;;;5010375;28;20509;-62
2022/09/14 08:05:05;;;;;;;6.50;5.10;;;19.90;99.90;;;;;;5019208;28;20438;-62
2022/09/14 08:07:30;;;;;;;8.10;5.27;;;19.90;99.90;;;;;;5027459;28;20168;-62
2022/09/14 08:09:56;;;;;;;7.17;5.27;;;20.00;99.90;;;;;;5008751;28;20450;-62
2022/09/14 08:12:22;;;;;;;6.97;4.67;;;20.00;99.90;;;;;;5011235;28;20192;-61
2022/09/14 08:14:50;;;;;;;9.10;4.40;;;20.10;99.90;;;;;;5013063;28;20631;-61
2022/09/14 08:17:15;;;;;;;8.43;5.23;;;20.20;99.90;;;;;;5013167;28;20208;-62
2022/09/14 08:19:41;;;;;;;7.40;4.00;;;20.30;99.90;;;;;;5015538;28;20443;-61
2022/09/14 08:22:07;;;;;;;7.57;3.87;;;20.40;99.90;;;;;;5013680;28;20722;-61
2022/09/14 08:24:32;;;;;;;9.87;4.10;;;20.60;99.90;;;;;;5013707;28;20184;-61
2022/09/14 08:26:58;;;;;;;8.37;3.70;;;20.70;99.90;;;;;;5024625;28;20599;-61
2022/09/14 08:29:24;;;;;;;10.50;3.50;;;20.90;99.90;;;;;;5025084;28;20204;-61
2022/09/14 08:31:51;;;;;;;11.23;3.90;;;21.00;99.90;;;;;;5028842;28;20271;-61
2022/09/14 08:34:18;;;;;;;6.23;3.53;;;21.00;99.90;;;;;;5029254;28;20805;-61
2022/09/14 08:36:45;;;;;;;9.43;3.70;;;21.00;99.90;;;;;;5030750;28;20454;-62
2022/09/14 08:39:13;;;;;;;6.83;3.67;;;21.00;99.90;;;;;;5013703;28;20415;-62
2022/09/14 08:41:44;;;;;;;6.73;3.40;;;21.00;99.90;;;;;;5024201;28;20513;-62
2022/09/14 08:44:15;;;;;;;5.23;3.87;;;21.00;99.90;;;;;;5018055;28;20821;-61
2022/09/14 08:46:45;;;;;;;6.00;3.60;;;21.00;99.90;;;;;;5020702;28;20431;-61
2022/09/14 08:49:38;;;;;;;6.30;3.53;;;21.10;99.90;;;;;;5013121;28;20407;-61
2022/09/14 08:52:04;;;;;;;4.50;3.07;;;21.20;99.90;;;;;;5012919;28;20463;-61
2022/09/14 08:54:32;;;;;;;14.47;3.87;;;21.30;99.90;;;;;;5012215;28;20529;-62
2022/09/14 08:57:14;;;;;;;5.97;3.00;;;21.20;99.90;;;;;;5013185;28;20473;-62
2022/09/14 09:00:04;;;;;;;7.30;3.57;;;21.30;99.90;;;;;;5013599;28;20879;-61
2022/09/14 09:02:48;;;;;;;6.70;3.47;;;21.30;99.90;;;;;;5011656;28;20450;-62
2022/09/14 09:05:32;;;;;;;6.33;3.30;;;21.30;99.90;;;;;;5029157;28;20441;-61
2022/09/14 09:08:05;;;;;;;8.93;3.00;;;21.30;99.90;;;;;;5031455;28;20429;-61
2022/09/14 09:10:32;;;;;;;11.47;3.60;;;21.40;99.90;;;;;;5021186;28;20419;-61
2022/09/14 09:13:00;;;;;;;6.60;3.67;;;21.40;99.90;;;;;;5012150;28;20516;-61
2022/09/14 09:15:30;;;;;;;9.20;3.37;;;21.50;99.90;;;;;;5022232;28;20407;-62
2022/09/14 09:18:10;;;;;;;5.37;3.43;;;21.60;99.90;;;;;;5025119;28;20443;-61
2022/09/14 09:20:45;;;;;;;10.43;4.07;;;21.70;99.90;;;;;;5025847;28;20427;-61
2022/09/14 09:23:14;;;;;;;6.33;3.60;;;21.80;99.90;;;;;;5012819;28;20423;-61
2022/09/14 09:26:06;;;;;;;5.20;3.20;;;21.90;99.90;;;;;;5029886;28;20501;-61
2022/09/14 09:28:33;;;;;;;9.60;3.77;;;21.90;99.90;;;;;;5015032;28;20431;-62
2022/09/14 09:31:05;;;;;;;7.33;3.80;;;22.00;99.90;;;;;;5022295;28;20811;-63
2022/09/14 09:33:31;;;;;;;4.43;3.30;;;22.00;99.90;;;;;;5024696;28;20465;-61
2022/09/14 09:35:58;;;;;;;6.67;4.07;;;21.90;99.90;;;;;;5030067;28;20462;-61
2022/09/14 09:38:26;;;;;;;8.10;3.90;;;22.00;99.90;;;;;;5017638;28;20523;-61
2022/09/14 09:41:11;;;;;;;6.33;3.63;;;22.00;99.90;;;;;;5031418;28;20955;-61
2022/09/14 09:43:55;;;;;;;13.23;3.90;;;22.10;99.90;;;;;;5028951;28;21058;-61
2022/09/14 09:46:21;;;;;;;6.43;3.20;;;22.10;99.90;;;;;;5019882;28;20450;-61
2022/09/14 09:48:47;;;;;;;10.27;3.33;;;22.00;99.90;;;;;;5031417;28;20415;-61
2022/09/14 09:51:25;;;;;;;9.87;3.47;;;22.00;99.90;;;;;;5020262;28;20204;-61
2022/09/14 09:53:53;;;;;;;5.20;3.70;;;22.00;99.90;;;;;;5037415;28;20347;-61
2022/09/14 09:56:26;;;;;;;7.37;3.80;;;22.00;99.90;;;;;;5012449;28;20467;-61
2022/09/14 09:58:51;;;;;;;8.17;3.37;;;22.00;99.90;;;;;;5023662;28;20913;-61
2022/09/14 10:01:21;;;;;;;5.47;3.50;;;22.00;99.90;;;;;;5032255;28;20477;-62
2022/09/14 10:04:05;;;;;;;4.77;3.80;;;21.90;99.90;;;;;;5026820;28;20299;-61
2022/09/14 10:06:39;;;;;;;3.70;3.40;;;21.90;99.90;;;;;;5012533;28;20964;-61
2022/09/14 10:09:12;;;;;;;9.93;3.73;;;21.90;99.90;;;;;;5011490;28;20416;-61
2022/09/14 10:11:38;;;;;;;9.60;3.87;;;21.90;99.90;;;;;;5012468;28;20439;-61
2022/09/14 10:14:17;;;;;;;5.50;3.30;;;21.90;99.90;;;;;;5015901;28;20459;-61
2022/09/14 10:16:43;;;;;;;6.63;3.53;;;21.80;99.90;;;;;;5014864;28;20666;-61
2022/09/14 10:19:23;;;;;;;5.90;3.20;;;21.80;99.90;;;;;;5011420;28;20490;-61
2022/09/14 10:22:16;;;;;;;6.67;3.67;;;21.90;99.90;;;;;;5011150;28;20246;-62
2022/09/14 10:24:58;;;;;;;4.70;3.77;;;22.00;99.90;;;;;;5011376;28;20466;-62
2022/09/14 10:27:34;;;;;;;7.47;3.57;;;22.00;99.90;;;;;;5010615;28;20439;-62
2022/09/14 10:30:03;;;;;;;13.57;3.97;;;22.10;99.90;;;;;;5031055;28;20921;-62
2022/09/14 10:32:30;;;;;;;3.90;3.10;;;22.30;99.90;;;;;;5013177;28;20533;-62
2022/09/14 10:34:57;;;;;;;4.77;3.10;;;22.40;99.90;;;;;;5028068;28;20438;-63
2022/09/14 10:37:40;;;;;;;4.13;3.13;;;22.50;99.90;;;;;;5029315;28;20462;-62
2022/09/14 10:40:24;;;;;;;5.37;3.10;;;22.50;99.90;;;;;;5017291;28;20427;-61
2022/09/14 10:43:15;;;;;;;7.30;3.37;;;22.50;99.90;;;;;;5011051;28;20447;-62
2022/09/14 10:45:54;;;;;;;4.77;3.23;;;22.50;99.90;;;;;;5010122;28;20435;-62
2022/09/14 10:48:29;;;;;;;5.63;3.20;;;22.50;99.90;;;;;;5043055;22;20494;-56
2022/09/14 10:51:08;;;;;;;6.57;3.20;;;22.50;99.90;;;;;;4995805;28;20814;-57
2022/09/14 10:54:01;;;;;;;5.30;3.07;;;22.50;99.90;;;;;;4997568;28;20970;-59
2022/09/14 10:56:51;;;;;;;6.83;4.07;;;22.60;99.90;;;;;;5000801;28;20451;-57
2022/09/14 10:59:20;;;;;;;9.30;3.10;;;22.60;99.90;;;;;;4998822;28;20447;-55
2022/09/14 11:02:12;;;;;;;3.70;3.40;;;22.70;99.90;;;;;;4999010;28;20593;-56
2022/09/14 11:04:57;;;;;;;6.23;3.50;;;22.80;99.90;;;;;;4997395;28;20810;-55
2022/09/14 11:07:43;;;;;;;5.07;3.30;;;22.90;99.90;;;;;;4996705;28;20953;-56
2022/09/14 11:10:41;;;;;;;16.63;3.27;;;22.90;99.90;;;;;;4999933;28;20477;-54
2022/09/14 11:13:36;;;;;;;5.87;3.13;;;23.00;99.90;;;;;;4999959;28;21189;-55
2022/09/14 11:16:22;;;;;;;7.90;3.20;;;23.10;99.90;;;;;;4998204;28;20532;-58
2022/09/14 11:19:23;;;;;;;4.20;3.27;;;23.30;99.90;;;;;;5004841;28;20452;-55
2022/09/14 11:21:55;;;;;;;8.53;3.23;;;23.40;99.90;;;;;;4988737;28;21228;-56
2022/09/14 11:24:24;;;;;;;5.83;2.90;;;23.40;99.90;;;;;;5001156;28;20638;-59
2022/09/14 11:27:23;;;;;;;8.03;3.13;;;23.50;99.90;;;;;;5002864;28;20419;-58
2022/09/14 11:29:54;;;;;;;7.60;3.27;;;23.40;99.90;;;;;;4978538;28;20443;-58
2022/09/14 11:32:41;;;;;;;6.47;3.70;;;23.30;99.90;;;;;;4998509;28;20488;-58
2022/09/14 11:35:32;;;;;;;6.00;2.90;;;23.20;99.90;;;;;;4992886;28;22377;-58
2022/09/14 11:38:11;;;;;;;5.50;3.30;;;23.20;99.90;;;;;;5000252;28;20618;-58
2022/09/14 11:40:56;;;;;;;5.37;3.63;;;23.30;99.90;;;;;;4999130;28;20442;-58
2022/09/14 11:43:28;;;;;;;5.17;3.70;;;23.30;99.90;;;;;;4999868;28;20432;-57
2022/09/14 11:46:08;;;;;;;5.43;3.20;;;23.40;99.90;;;;;;4998456;28;20988;-59
2022/09/14 11:48:47;;;;;;;4.60;2.93;;;23.30;99.90;;;;;;5002082;28;20447;-58
2022/09/14 11:51:14;;;;;;;7.10;3.87;;;23.20;99.90;;;;;;4999509;28;20596;-59
2022/09/14 11:53:42;;;;;;;6.37;3.67;;;23.20;99.90;;;;;;5000483;28;20439;-57
2022/09/14 11:56:23;;;;;;;3.33;3.03;;;23.20;99.90;;;;;;5001908;28;20620;-59
2022/09/14 11:58:49;;;;;;;8.07;4.03;;;23.40;99.90;;;;;;4994708;28;20463;-60
2022/09/14 12:01:29;;;;;;;7.97;2.90;;;23.50;99.90;;;;;;4999902;28;20447;-58
2022/09/14 12:03:55;;;;;;;5.30;2.90;;;23.70;99.90;;;;;;5000417;28;20514;-59
2022/09/14 12:06:44;;;;;;;5.00;2.83;;;23.80;99.90;;;;;;5000867;28;20491;-58
2022/09/14 12:09:16;;;;;;;3.53;2.57;;;23.70;99.90;;;;;;4988177;28;20222;-56
2022/09/14 12:11:43;;;;;;;3.50;2.63;;;23.50;99.90;;;;;;4994394;28;20451;-58
2022/09/14 12:14:29;;;;;;;4.40;2.40;;;23.30;99.90;;;;;;5001509;28;22315;-60
2022/09/14 12:17:30;;;;;;;8.33;2.60;;;23.10;99.90;;;;;;4993426;28;20469;-60
2022/09/14 12:20:18;;;;;;;9.43;2.73;;;22.80;99.90;;;;;;5004007;28;20534;-60
2022/09/14 12:22:44;;;;;;;5.87;2.43;;;22.70;99.90;;;;;;5000994;28;20441;-60
2022/09/14 12:25:16;;;;;;;6.30;2.50;;;22.60;99.90;;;;;;4998713;28;21029;-58
2022/09/14 12:27:43;;;;;;;4.50;2.40;;;22.50;99.90;;;;;;5011680;28;20275;-59
2022/09/14 12:30:40;;;;;;;5.07;2.27;;;22.50;99.90;;;;;;5002222;28;20471;-58
2022/09/14 12:33:31;;;;;;;7.20;2.73;;;22.50;99.90;;;;;;4995111;28;20436;-57
2022/09/14 12:35:57;;;;;;;4.83;2.57;;;22.50;99.90;;;;;;4998518;28;20439;-59
2022/09/14 12:38:29;;;;;;;6.33;2.80;;;22.50;99.90;;;;;;4994090;28;20538;-56
2022/09/14 12:41:07;;;;;;;6.00;3.17;;;22.60;99.90;;;;;;5002784;28;20523;-57
2022/09/14 12:43:36;;;;;;;2.70;2.50;;;22.70;99.90;;;;;;4997375;28;20431;-59
2022/09/14 12:46:09;;;;;;;4.30;2.87;;;22.90;99.90;;;;;;5005615;28;20509;-58
2022/09/14 12:49:02;;;;;;;6.20;2.57;;;23.00;99.90;;;;;;4999060;28;20451;-58
2022/09/14 12:51:29;;;;;;;6.20;2.20;;;23.10;99.90;;;;;;5003061;28;20440;-59
2022/09/14 12:54:00;;;;;;;10.43;2.97;;;23.10;99.90;;;;;;4991966;28;20415;-59
2022/09/14 12:56:55;;;;;;;5.13;2.97;;;23.00;99.90;;;;;;5004008;28;20586;-60
2022/09/14 12:59:36;;;;;;;5.40;2.63;;;22.90;99.90;;;;;;5001646;28;20527;-59
2022/09/14 13:02:20;;;;;;;3.73;2.40;;;22.80;99.90;;;;;;4998056;28;20440;-59
2022/09/14 13:04:46;;;;;;;5.00;2.40;;;22.70;99.50;;;;;;5006610;28;20481;-59
2022/09/14 13:07:15;;;;;;;5.33;2.43;;;22.60;99.90;;;;;;4999846;28;20523;-58
2022/09/14 13:10:02;;;;;;;4.90;2.57;;;22.40;99.90;;;;;;5008428;28;20459;-58